createdAt,value
2018-07-12T03:17:27.867Z,68.98
2018-07-12T03:18:27.862Z,68.35
2018-07-12T03:19:27.854Z,68.44
2018-07-12T03:20:27.854Z,68.35
2018-07-12T03:21:27.839Z,68.25
2018-07-12T03:22:27.839Z,68.15
2018-07-12T03:23:27.839Z,68.15
2018-07-12T03:24:27.841Z,69.37
2018-07-12T03:25:27.838Z,68.70
2018-07-12T03:26:27.846Z,69.37
2018-07-12T03:27:27.835Z,68.44
2018-07-12T03:28:27.831Z,68.79
2018-07-12T03:29:27.837Z,68.51
2018-07-12T03:30:27.839Z,69.27
2018-07-12T03:31:27.836Z,68.98
2018-07-12T03:32:27.836Z,69.18
2018-07-12T03:33:27.844Z,68.60
2018-07-12T03:34:27.834Z,68.25
2018-07-12T03:35:27.841Z,67.86
2018-07-12T03:36:27.847Z,67.86
2018-07-12T03:37:27.840Z,67.93
2018-07-12T03:38:27.859Z,67.58
2018-07-12T03:39:27.844Z,67.48
2018-07-12T03:40:27.858Z,68.31
2018-07-12T03:41:27.860Z,67.29
2018-07-12T03:42:27.847Z,67.38
2018-07-12T03:43:27.850Z,68.21
2018-07-12T03:44:27.854Z,68.02
2018-07-12T03:45:27.868Z,69.56
2018-07-12T03:46:27.851Z,69.18
2018-07-12T03:47:27.858Z,68.70
2018-07-12T03:48:27.868Z,68.15
2018-07-12T03:49:27.865Z,67.38
2018-07-12T03:50:27.857Z,66.91
2018-07-12T03:51:27.885Z,67.48
2018-07-12T03:52:27.861Z,67.58
2018-07-12T03:53:27.877Z,67.00
2018-07-12T03:54:27.883Z,67.00
2018-07-12T03:55:27.918Z,67.38
2018-07-12T03:56:27.888Z,67.48
2018-07-12T03:57:27.877Z,67.48
2018-07-12T03:58:27.887Z,67.48
2018-07-12T03:59:27.903Z,67.58
2018-07-12T04:00:27.913Z,67.77
2018-07-12T04:01:27.870Z,67.10
2018-07-12T04:02:28.585Z,66.81
2018-07-12T04:03:27.921Z,67.00
2018-07-12T04:04:27.882Z,67.00
2018-07-12T04:05:27.891Z,67.74
2018-07-12T04:06:27.887Z,68.12
2018-07-12T04:07:27.885Z,67.48
2018-07-12T04:08:27.887Z,67.10
2018-07-12T04:09:27.887Z,67.38
2018-07-12T04:10:27.888Z,67.00
2018-07-12T04:11:27.891Z,67.29
2018-07-12T04:12:27.962Z,67.48
2018-07-12T04:13:27.890Z,67.64
2018-07-12T04:14:27.938Z,67.45
2018-07-12T04:15:27.898Z,67.10
2018-07-12T04:16:27.903Z,67.48
2018-07-12T04:17:27.914Z,67.19
2018-07-12T04:18:27.910Z,66.81
2018-07-12T04:19:27.913Z,67.58
2018-07-12T04:20:27.910Z,67.38
2018-07-12T04:21:27.907Z,67.29
2018-07-12T04:22:27.941Z,66.71
2018-07-12T04:23:27.911Z,66.71
2018-07-12T04:24:27.915Z,66.52
2018-07-12T04:25:27.918Z,67.00
2018-07-12T04:26:27.921Z,67.35
2018-07-12T04:27:27.926Z,67.29
2018-07-12T04:28:28.016Z,67.29
2018-07-12T04:29:27.932Z,67.19
2018-07-12T04:30:27.922Z,67.58
2018-07-12T04:32:50.113Z,67.29
2018-07-12T04:33:49.043Z,67.10
2018-07-12T04:34:49.035Z,67.58
2018-07-12T04:35:49.020Z,67.25
2018-07-12T04:36:49.015Z,67.64
2018-07-12T04:37:49.097Z,67.68
2018-07-12T04:38:49.021Z,67.29
2018-07-12T04:39:49.026Z,67.29
2018-07-12T04:40:49.030Z,67.00
2018-07-12T04:41:49.026Z,67.64
2018-07-12T04:42:49.029Z,67.77
2018-07-12T04:43:49.032Z,67.10
2018-07-12T04:44:49.037Z,67.00
2018-07-12T04:45:49.286Z,67.35
2018-07-12T04:46:49.033Z,68.41
2018-07-12T04:47:49.038Z,68.02
2018-07-12T04:48:49.315Z,67.45
2018-07-12T04:49:49.050Z,67.25
2018-07-12T04:50:49.065Z,67.19
2018-07-12T04:51:49.059Z,67.10
2018-07-12T04:52:49.050Z,67.58
2018-07-12T04:53:49.060Z,67.10
2018-07-12T04:54:49.062Z,67.00
2018-07-12T04:55:49.096Z,67.38
2018-07-12T04:56:49.072Z,67.96
2018-07-12T04:57:49.075Z,67.68
2018-07-12T04:58:49.095Z,68.06
2018-07-12T04:59:49.062Z,67.38
2018-07-12T05:00:49.061Z,68.21
2018-07-12T05:01:49.058Z,68.31
2018-07-12T05:02:49.064Z,67.38
2018-07-12T05:03:49.133Z,67.10
2018-07-12T05:04:49.069Z,67.77
2018-07-12T05:05:49.066Z,68.21
2018-07-12T05:06:49.117Z,68.06
2018-07-12T05:07:49.142Z,67.68
2018-07-12T05:08:49.290Z,68.06
2018-07-12T05:09:49.219Z,68.02
2018-07-12T05:10:49.088Z,67.25
2018-07-12T05:11:49.075Z,67.10
2018-07-12T05:12:49.089Z,67.00
2018-07-12T05:13:49.082Z,67.38
2018-07-12T05:14:49.100Z,67.77
2018-07-12T05:15:49.088Z,67.10
2018-07-12T05:16:49.094Z,67.86
2018-07-12T05:17:49.120Z,68.31
2018-07-12T05:18:49.101Z,68.06
2018-07-12T05:19:49.252Z,67.68
2018-07-12T05:20:49.094Z,67.00
2018-07-12T05:21:49.147Z,67.00
2018-07-12T05:22:49.096Z,67.58
2018-07-12T05:23:49.099Z,67.58
2018-07-12T05:24:49.102Z,67.86
2018-07-12T05:25:49.101Z,67.68
2018-07-12T05:26:49.106Z,67.68
2018-07-12T05:27:49.113Z,67.10
2018-07-12T05:28:49.120Z,67.48
2018-07-12T05:29:49.119Z,67.19
2018-07-12T05:30:49.171Z,67.19
2018-07-12T05:31:49.134Z,66.81
2018-07-12T05:32:49.265Z,67.86
2018-07-12T05:33:49.122Z,67.48
2018-07-12T05:34:49.126Z,67.86
2018-07-12T05:35:49.137Z,67.19
2018-07-12T05:36:49.148Z,67.19
2018-07-12T05:37:49.124Z,67.10
2018-07-12T05:38:49.154Z,66.71
2018-07-12T05:39:49.130Z,67.77
2018-07-12T05:40:49.130Z,67.19
2018-07-12T05:41:49.130Z,67.86
2018-07-12T05:42:49.142Z,68.25
2018-07-12T05:43:49.139Z,68.25
2018-07-12T05:44:49.359Z,68.35
2018-07-12T05:45:49.139Z,68.44
2018-07-12T05:46:49.222Z,68.35
2018-07-12T05:47:49.163Z,68.92
2018-07-12T05:48:49.147Z,69.02
2018-07-12T05:49:49.148Z,68.54
2018-07-12T05:50:49.152Z,68.44
2018-07-12T05:51:49.159Z,68.25
2018-07-12T05:52:49.170Z,68.44
2018-07-12T05:53:49.160Z,68.35
2018-07-12T05:54:49.158Z,68.25
2018-07-12T05:55:49.163Z,69.02
2018-07-12T05:56:49.175Z,68.25
2018-07-12T05:57:49.442Z,68.73
2018-07-12T05:58:49.178Z,68.83
2018-07-12T05:59:49.167Z,69.18
2018-07-12T06:00:49.177Z,68.92
2018-07-12T06:01:49.189Z,69.12
2018-07-12T06:02:49.225Z,68.63
2018-07-12T06:03:49.193Z,69.02
2018-07-12T06:04:49.204Z,68.92
2018-07-12T06:05:49.183Z,68.06
2018-07-12T06:06:49.195Z,69.02
2018-07-12T06:07:49.184Z,68.44
2018-07-12T06:08:49.192Z,68.44
2018-07-12T06:09:49.198Z,69.02
2018-07-12T06:10:49.204Z,69.60
2018-07-12T06:11:49.195Z,69.79
2018-07-12T06:12:49.196Z,69.40
2018-07-12T06:13:49.201Z,69.21
2018-07-12T06:14:49.206Z,68.92
2018-07-12T06:15:49.205Z,69.50
2018-07-12T06:16:49.205Z,69.02
2018-07-12T06:17:49.207Z,68.92
2018-07-12T06:18:49.254Z,68.92
2018-07-12T06:19:49.224Z,69.02
2018-07-12T06:20:49.208Z,68.92
2018-07-12T06:21:49.209Z,69.40
2018-07-12T06:22:49.227Z,69.21
2018-07-12T06:23:49.216Z,69.40
2018-07-12T06:24:49.221Z,68.15
2018-07-12T06:25:49.230Z,68.15
2018-07-12T06:26:49.227Z,68.35
2018-07-12T06:27:49.227Z,68.54
2018-07-12T06:28:49.236Z,68.35
2018-07-12T06:29:49.235Z,67.96
2018-07-12T06:30:49.230Z,67.29
2018-07-12T06:31:49.234Z,68.15
2018-07-12T06:32:49.243Z,68.35
2018-07-12T06:33:59.701Z,68.73
2018-07-12T06:35:42.722Z,68.73
2018-07-12T06:36:42.694Z,68.92
2018-07-12T06:37:42.702Z,69.40
2018-07-12T06:38:42.669Z,69.02
2018-07-12T06:39:42.668Z,68.73
2018-07-12T06:40:42.666Z,68.73
2018-07-12T06:41:42.676Z,68.25
2018-07-12T06:42:42.787Z,69.60
2018-07-12T06:43:42.718Z,69.50
2018-07-12T06:44:42.706Z,69.50
2018-07-12T06:45:42.743Z,70.27
2018-07-12T06:46:42.788Z,70.37
2018-07-12T06:47:42.679Z,70.90
2018-07-12T06:48:42.738Z,70.17
2018-07-12T06:49:42.712Z,70.07
2018-07-12T06:50:42.691Z,70.17
2018-07-12T06:51:42.690Z,71.04
2018-07-12T06:52:42.765Z,70.90
2018-07-12T06:53:42.722Z,70.07
2018-07-12T06:54:42.742Z,69.02
2018-07-12T06:55:42.729Z,69.40
2018-07-12T06:56:42.706Z,68.54
2018-07-12T06:57:42.773Z,69.02
2018-07-12T06:58:42.762Z,70.07
2018-07-12T06:59:42.711Z,69.12
2018-07-12T07:00:42.871Z,68.92
2018-07-12T07:01:42.769Z,69.50
2018-07-12T07:02:42.719Z,69.89
2018-07-12T07:03:52.535Z,69.79
2018-07-12T07:05:37.931Z,70.46
2018-07-12T07:06:37.346Z,70.17
2018-07-12T07:07:37.354Z,70.17
2018-07-12T07:08:37.446Z,70.46
2018-07-12T07:09:37.351Z,70.46
2018-07-12T07:10:37.372Z,70.37
2018-07-12T07:11:37.333Z,70.17
2018-07-12T07:12:37.356Z,70.46
2018-07-12T07:13:37.390Z,70.07
2018-07-12T07:14:37.375Z,71.14
2018-07-12T07:15:37.380Z,71.23
2018-07-12T07:16:37.513Z,71.42
2018-07-12T07:17:37.372Z,69.69
2018-07-12T07:18:37.415Z,69.73
2018-07-12T07:19:37.388Z,69.63
2018-07-12T07:20:37.388Z,70.98
2018-07-12T07:21:37.425Z,70.88
2018-07-12T07:22:37.420Z,70.01
2018-07-12T07:23:37.426Z,70.50
2018-07-12T07:24:37.350Z,70.59
2018-07-12T07:25:37.396Z,70.59
2018-07-12T07:26:37.361Z,70.11
2018-07-12T07:27:37.436Z,69.53
2018-07-12T07:28:37.549Z,69.06
2018-07-12T07:29:37.451Z,69.92
2018-07-12T07:30:37.484Z,69.06
2018-07-12T07:31:37.435Z,69.24
2018-07-12T07:32:37.449Z,68.51
2018-07-12T07:33:37.477Z,68.32
2018-07-12T07:34:37.441Z,67.45
2018-07-12T07:35:37.638Z,67.83
2018-07-12T07:36:37.436Z,67.93
2018-07-12T07:37:37.472Z,68.03
2018-07-12T07:38:37.425Z,68.22
2018-07-12T07:39:37.403Z,67.93
2018-07-12T07:40:37.535Z,68.41
2018-07-12T07:41:37.549Z,68.41
2018-07-12T07:42:37.446Z,68.41
2018-07-12T07:43:37.456Z,68.90
2018-07-12T07:44:37.563Z,68.03
2018-07-12T07:45:37.437Z,68.41
2018-07-12T07:46:37.533Z,67.55
2018-07-12T07:47:37.502Z,67.74
2018-07-12T07:48:37.448Z,67.65
2018-07-12T07:49:37.512Z,67.83
2018-07-12T07:50:37.509Z,67.65
2018-07-12T07:51:37.529Z,68.41
2018-07-12T07:52:37.436Z,68.32
2018-07-12T07:53:37.513Z,68.32
2018-07-12T07:54:37.441Z,68.80
2018-07-12T07:55:37.511Z,68.03
2018-07-12T07:56:37.500Z,68.51
2018-07-12T07:57:37.466Z,68.03
2018-07-12T07:58:37.465Z,68.22
2018-07-12T07:59:37.460Z,68.70
2018-07-12T08:00:37.490Z,68.32
2018-07-12T08:01:37.524Z,68.32
2018-07-12T08:02:37.529Z,67.55
2018-07-12T08:03:37.511Z,67.97
2018-07-12T08:04:37.537Z,68.44
2018-07-12T08:05:37.502Z,67.49
2018-07-12T08:06:37.511Z,69.38
2018-07-12T08:07:37.531Z,69.28
2018-07-12T08:08:37.490Z,70.34
2018-07-12T08:09:37.587Z,69.18
2018-07-12T08:10:37.494Z,69.76
2018-07-12T08:11:37.495Z,70.24
2018-07-12T08:12:37.501Z,70.24
2018-07-12T08:13:37.539Z,69.76
2018-07-12T08:14:37.554Z,69.76
2018-07-12T08:15:37.511Z,70.34
2018-07-12T08:16:37.536Z,69.31
2018-07-12T08:17:37.535Z,69.41
2018-07-12T08:18:37.543Z,69.67
2018-07-12T08:19:37.526Z,70.82
2018-07-12T08:20:37.589Z,72.17
2018-07-12T08:21:37.536Z,73.22
2018-07-12T08:22:37.535Z,74.19
2018-07-12T08:23:37.612Z,73.51
2018-07-12T08:24:37.554Z,72.94
2018-07-12T08:25:37.547Z,72.17
2018-07-12T08:26:37.586Z,71.53
2018-07-12T08:27:37.552Z,70.28
2018-07-12T08:28:37.580Z,70.37
2018-07-12T08:29:37.610Z,70.56
2018-07-12T08:30:37.571Z,71.43
2018-07-12T08:31:37.700Z,70.47
2018-07-12T08:32:37.574Z,71.04
2018-07-12T08:33:37.608Z,70.76
2018-07-12T08:34:37.617Z,72.01
2018-07-12T08:35:37.590Z,71.53
2018-07-12T08:36:37.600Z,71.04
2018-07-12T08:37:37.613Z,69.70
2018-07-12T08:38:37.635Z,70.12
2018-07-12T08:39:47.343Z,69.99
2018-07-12T08:41:31.130Z,69.60
2018-07-12T08:42:31.075Z,69.89
2018-07-12T08:43:31.059Z,69.60
2018-07-12T08:44:31.057Z,70.09
2018-07-12T08:45:31.043Z,69.60
2018-07-12T08:46:33.571Z,70.95
2018-07-12T08:47:31.051Z,71.04
2018-07-12T08:48:31.088Z,71.14
2018-07-12T08:49:31.117Z,72.01
2018-07-12T08:50:31.073Z,71.81
2018-07-12T08:51:31.037Z,71.53
2018-07-12T08:52:31.044Z,70.95
2018-07-12T08:53:31.048Z,70.56
2018-07-12T08:54:31.059Z,70.66
2018-07-12T08:55:31.050Z,69.83
2018-07-12T08:56:31.065Z,70.21
2018-07-12T08:57:39.736Z,69.73
2018-07-12T08:59:35.607Z,69.57
2018-07-12T09:00:24.500Z,69.19
2018-07-12T09:01:24.534Z,68.71
2018-07-12T09:02:24.515Z,69.19
2018-07-12T09:03:36.237Z,70.12
2018-07-12T09:05:18.998Z,70.21
